Time;durP1;ratioP1;P1;durP2;ratioP2;P2;SDS_P1;SDS_P2;PMS_P1;PMS_P2;Temp;Humidity;BMP_temperature;BMP_pressure;BME280_temperature;BME280_humidity;BME280_pressure;Samples;Min_cycle;Max_cycle;Signal;HPM_P1;HPM_P2
2022/11/03 00:01:36;;;;;;;;;;;;;;;8.85;82.00;100036.72;5020676;28;1917;-76
2022/11/03 00:04:03;;;;;;;;;;;;;;;8.94;81.57;100034.56;5016892;28;2042;-77
2022/11/03 00:06:29;;;;;;;;;;;;;;;8.90;82.15;100036.03;5026738;28;2077;-76
2022/11/03 00:08:55;;;;;;;;;;;;;;;8.86;82.23;100038.34;5017569;28;1931;-77
2022/11/03 00:11:21;;;;;;;;;;;;;;;8.90;81.69;100041.41;5020210;28;1861;-76
2022/11/03 00:13:48;;;;;;;;;;;;;;;8.87;82.13;100040.00;5019481;28;1872;-77
2022/11/03 00:16:14;;;;;;;;;;;;;;;8.92;82.12;100043.91;5015011;28;2061;-76
2022/11/03 00:18:40;;;;;;;;;;;;;;;8.92;81.73;100043.91;5020606;28;1919;-76
2022/11/03 00:21:07;;;;;;;;;;;;;;;8.92;81.56;100055.44;5024904;28;1879;-77
2022/11/03 00:23:33;;;;;;;;;;;;;;;9.02;81.33;100045.00;5025612;28;1777;-77
2022/11/03 00:25:59;;;;;;;;;;;;;;;8.87;81.89;100041.84;5014775;28;1879;-76
2022/11/03 00:28:25;;;;;;;;;;;;;;;8.85;81.76;100052.84;5018076;28;1693;-77
2022/11/03 00:30:52;;;;;;;;;;;;;;;8.80;82.21;100054.53;5016190;28;2061;-76
2022/11/03 00:33:18;;;;;;;;;;;;;;;8.81;81.94;100048.94;5016502;28;1755;-77
2022/11/03 00:35:44;;;;;;;;;;;;;;;8.85;81.74;100060.03;5017160;28;1568;-76
2022/11/03 00:38:10;;;;;;;;;;;;;;;8.87;81.50;100063.34;5019356;28;1977;-77
2022/11/03 00:40:37;;;;;;;;;;;;;;;8.85;81.72;100062.72;5017842;28;1704;-77
2022/11/03 00:43:03;;;;;;;;;;;;;;;8.81;81.82;100061.53;5015126;28;1825;-77
2022/11/03 00:45:29;;;;;;;;;;;;;;;8.86;81.63;100065.22;5016699;28;1844;-77
2022/11/03 00:50:40;;;;;;;;;;;;;;;8.80;81.66;100054.53;5016270;28;1633;-76
2022/11/03 00:53:06;;;;;;;;;;;;;;;8.78;82.04;100053.94;5020005;28;1886;-77
2022/11/03 00:55:32;;;;;;;;;;;;;;;8.76;82.06;100059.50;5016321;28;1540;-77
2022/11/03 00:57:58;;;;;;;;;;;;;;;8.77;82.01;100058.47;5015966;28;1918;-76
2022/11/03 01:00:25;;;;;;;;;;;;;;;8.73;81.90;100056.44;5011040;28;1870;-77
2022/11/03 01:02:51;;;;;;;;;;;;;;;8.78;82.11;100051.25;5016321;28;1904;-77
2022/11/03 01:08:03;;;;;;;;;;;;;;;8.74;81.82;100037.44;5016060;28;1868;-77
2022/11/03 01:10:29;;;;;;;;;;;;;;;8.70;82.29;100038.91;5016768;28;1917;-77
2022/11/03 01:12:55;;;;;;;;;;;;;;;8.76;81.68;100035.34;5017375;28;2007;-76
2022/11/03 01:15:22;;;;;;;;;;;;;;;8.68;81.96;100019.53;5016908;28;1691;-77
2022/11/03 01:17:48;;;;;;;;;;;;;;;8.67;81.99;100019.72;5016871;28;1966;-76
2022/11/03 01:20:14;;;;;;;;;;;;;;;8.73;81.83;100013.47;5019243;28;1700;-77
2022/11/03 01:22:40;;;;;;;;;;;;;;;8.68;81.91;100016.00;5018412;28;1953;-77
2022/11/03 01:25:07;;;;;;;;;;;;;;;8.72;81.95;100022.59;5018488;28;2293;-77
2022/11/03 01:27:33;;;;;;;;;;;;;;;8.72;82.03;100012.66;5015895;28;1711;-77
2022/11/03 01:29:59;;;;;;;;;;;;;;;8.78;81.56;100005.59;5018010;28;1560;-76
2022/11/03 01:32:26;;;;;;;;;;;;;;;8.73;81.54;100003.56;5016711;28;1836;-77
2022/11/03 01:34:52;;;;;;;;;;;;;;;8.66;82.12;99997.44;5018869;28;1841;-76
2022/11/03 01:37:18;;;;;;;;;;;;;;;8.69;82.00;99980.88;5015617;28;2007;-77
2022/11/03 01:39:45;;;;;;;;;;;;;;;8.61;81.90;99984.66;5020336;28;1916;-77
2022/11/03 01:42:11;;;;;;;;;;;;;;;8.58;82.14;99982.41;5016879;28;2053;-77
2022/11/03 01:44:37;;;;;;;;;;;;;;;8.63;81.86;99976.41;5016397;28;1891;-77
2022/11/03 01:47:04;;;;;;;;;;;;;;;8.62;82.10;99980.16;5015467;28;1908;-76
2022/11/03 01:49:30;;;;;;;;;;;;;;;8.63;81.92;99977.22;5015776;28;2404;-77
2022/11/03 01:51:56;;;;;;;;;;;;;;;8.67;81.72;99969.53;5018224;28;1769;-77
2022/11/03 01:54:22;;;;;;;;;;;;;;;8.63;81.86;99966.47;5013392;28;5188;-76
2022/11/03 01:56:50;;;;;;;;;;;;;;;8.61;81.95;99965.06;5010852;28;5063;-77
2022/11/03 01:59:16;;;;;;;;;;;;;;;8.57;82.09;99964.69;5016455;28;2054;-77
2022/11/03 02:01:42;;;;;;;;;;;;;;;8.62;81.65;99966.72;5018027;28;3915;-76
2022/11/03 02:04:09;;;;;;;;;;;;;;;8.59;81.78;99970.66;5014907;28;1944;-77
2022/11/03 02:06:35;;;;;;;;;;;;;;;8.59;82.08;99961.78;5018326;28;2005;-77
2022/11/03 02:09:02;;;;;;;;;;;;;;;8.57;81.80;99959.31;5013444;28;1596;-77
2022/11/03 02:14:20;;;;;;;;;;;;;;;8.58;81.72;99952.91;4969850;28;5603;-77
2022/11/03 02:16:47;;;;;;;;;;;;;;;8.58;81.81;99960.13;5014955;28;1630;-77
2022/11/03 02:19:13;;;;;;;;;;;;;;;8.57;81.75;99962.00;5013720;28;2015;-77
2022/11/03 02:21:39;;;;;;;;;;;;;;;8.53;82.16;99952.75;5015977;28;1765;-77
2022/11/03 02:24:05;;;;;;;;;;;;;;;8.58;82.13;99946.72;5015329;28;1998;-77
2022/11/03 02:26:32;;;;;;;;;;;;;;;8.51;82.12;99944.09;5015323;28;2908;-77
2022/11/03 02:28:58;;;;;;;;;;;;;;;8.50;82.10;99934.41;5012185;28;1920;-77
2022/11/03 02:31:24;;;;;;;;;;;;;;;8.49;82.08;99924.69;5014523;28;1920;-77
2022/11/03 02:33:51;;;;;;;;;;;;;;;8.61;81.47;99927.47;5015054;28;1738;-77
2022/11/03 02:36:17;;;;;;;;;;;;;;;8.55;81.88;99920.31;5014212;28;1828;-77
2022/11/03 02:38:43;;;;;;;;;;;;;;;8.51;81.99;99922.63;5011971;28;1950;-77
2022/11/03 02:41:09;;;;;;;;;;;;;;;8.56;81.69;99933.53;5015891;28;1782;-77
2022/11/03 02:43:36;;;;;;;;;;;;;;;8.51;81.75;99932.53;5016704;28;1978;-77
2022/11/03 02:46:02;;;;;;;;;;;;;;;8.54;81.59;99932.09;5014316;28;1848;-77
2022/11/03 02:48:29;;;;;;;;;;;;;;;8.52;81.89;99926.94;5014242;28;1866;-77
2022/11/03 02:50:55;;;;;;;;;;;;;;;8.47;82.06;99913.38;5017650;28;1638;-77
2022/11/03 02:53:21;;;;;;;;;;;;;;;8.51;81.87;99903.84;5013993;28;1749;-77
2022/11/03 02:55:48;;;;;;;;;;;;;;;8.47;81.66;99891.06;5022254;28;1480;-77
2022/11/03 02:58:14;;;;;;;;;;;;;;;8.48;81.91;99893.56;5020900;28;1981;-77
2022/11/03 03:00:41;;;;;;;;;;;;;;;8.53;81.62;99887.50;5018644;28;1898;-77
2022/11/03 03:03:07;;;;;;;;;;;;;;;8.45;82.07;99883.25;5018515;28;1602;-77
2022/11/03 03:05:33;;;;;;;;;;;;;;;8.43;82.00;99877.28;5019367;28;2266;-77
2022/11/03 03:07:59;;;;;;;;;;;;;;;8.42;82.02;99875.66;5021240;28;1723;-77
2022/11/03 03:10:26;;;;;;;;;;;;;;;8.44;81.80;99867.38;5020950;28;1834;-77
2022/11/03 03:12:52;;;;;;;;;;;;;;;8.43;82.09;99871.09;5022010;28;1701;-77
2022/11/03 03:15:18;;;;;;;;;;;;;;;8.44;81.85;99864.69;5017274;28;1777;-77
2022/11/03 03:17:45;;;;;;;;;;;;;;;8.41;82.16;99855.22;5035138;28;1918;-77
2022/11/03 03:20:13;;;;;;;;;;;;;;;8.43;81.72;99852.31;5019683;28;1654;-77
2022/11/03 03:22:39;;;;;;;;;;;;;;;8.42;81.79;99843.44;5017337;28;1935;-77
2022/11/03 03:25:05;;;;;;;;;;;;;;;8.39;82.08;99843.91;5017403;28;1852;-77
2022/11/03 03:27:31;;;;;;;;;;;;;;;8.39;81.79;99852.75;5026084;28;1745;-77
2022/11/03 03:29:58;;;;;;;;;;;;;;;8.41;81.87;99839.94;5020046;28;1909;-77
2022/11/03 03:32:24;;;;;;;;;;;;;;;8.38;81.73;99839.53;5018636;28;2006;-77
2022/11/03 03:34:50;;;;;;;;;;;;;;;8.45;81.63;99842.19;5017098;28;1564;-77
2022/11/03 03:37:17;;;;;;;;;;;;;;;8.39;81.81;99842.03;5018556;28;1623;-77
2022/11/03 03:39:43;;;;;;;;;;;;;;;8.37;81.82;99830.66;5023719;28;1974;-77
2022/11/03 03:42:09;;;;;;;;;;;;;;;8.37;81.94;99830.66;5025547;28;1666;-77
2022/11/03 03:44:35;;;;;;;;;;;;;;;8.37;81.79;99827.16;5019159;28;1678;-77
2022/11/03 03:47:02;;;;;;;;;;;;;;;8.39;82.06;99817.06;5018774;28;2005;-77
2022/11/03 03:49:28;;;;;;;;;;;;;;;8.36;81.64;99804.88;5018619;28;1643;-77
2022/11/03 03:51:54;;;;;;;;;;;;;;;8.37;81.74;99798.47;5017700;28;1605;-77
2022/11/03 03:54:21;;;;;;;;;;;;;;;8.37;81.78;99805.69;5018256;28;1917;-77
2022/11/03 03:56:47;;;;;;;;;;;;;;;8.35;81.86;99797.88;5021148;28;1766;-77
2022/11/03 03:59:13;;;;;;;;;;;;;;;8.38;81.90;99801.97;5018875;28;1973;-77
2022/11/03 04:01:39;;;;;;;;;;;;;;;8.43;81.68;99807.50;5018465;28;1634;-77
2022/11/03 04:04:06;;;;;;;;;;;;;;;8.36;81.71;99804.88;5017213;28;1865;-77
2022/11/03 04:06:32;;;;;;;;;;;;;;;8.37;81.92;99811.88;5018006;28;1739;-77
2022/11/03 04:08:58;;;;;;;;;;;;;;;8.35;81.87;99800.56;5015012;28;1629;-77
2022/11/03 04:22:21;;;;;;;;;;;;;;;8.35;81.79;99789.00;5015642;28;1918;-76
2022/11/03 04:24:47;;;;;;;;;;;;;;;8.34;81.89;99776.63;5012492;28;5014;-77
2022/11/03 04:27:14;;;;;;;;;;;;;;;8.36;81.76;99775.38;5015732;28;5105;-77
2022/11/03 04:29:40;;;;;;;;;;;;;;;8.34;81.73;99779.31;5020053;28;1901;-77
2022/11/03 04:32:06;;;;;;;;;;;;;;;8.36;81.49;99778.06;5015747;28;5025;-77
2022/11/03 04:34:32;;;;;;;;;;;;;;;8.33;81.87;99762.41;5016619;28;1698;-77
2022/11/03 04:36:59;;;;;;;;;;;;;;;8.34;81.90;99765.91;5016866;28;1756;-77
2022/11/03 04:39:25;;;;;;;;;;;;;;;8.33;81.99;99767.75;5016275;28;1922;-77
2022/11/03 04:41:51;;;;;;;;;;;;;;;8.32;81.63;99760.75;5018558;28;1959;-77
2022/11/03 04:44:17;;;;;;;;;;;;;;;8.36;81.50;99764.63;5018639;28;5123;-77
2022/11/03 04:46:44;;;;;;;;;;;;;;;8.33;81.67;99750.84;5020329;28;1902;-77
2022/11/03 04:49:10;;;;;;;;;;;;;;;8.38;81.73;99759.91;5015536;28;1979;-77
2022/11/03 04:51:36;;;;;;;;;;;;;;;8.39;81.43;99771.44;5017520;28;1932;-77
2022/11/03 04:54:03;;;;;;;;;;;;;;;8.36;81.47;99766.50;5022854;28;1674;-77
2022/11/03 04:56:29;;;;;;;;;;;;;;;8.41;81.53;99750.56;5022105;28;2939;-77
2022/11/03 04:58:55;;;;;;;;;;;;;;;8.38;81.59;99753.66;5023847;28;2345;-77
2022/11/03 05:01:22;;;;;;;;;;;;;;;8.38;81.25;99756.34;5018355;28;1838;-77
2022/11/03 05:03:48;;;;;;;;;;;;;;;8.38;81.57;99761.72;5015701;28;1976;-77
2022/11/03 05:06:14;;;;;;;;;;;;;;;8.42;81.30;99738.81;5016427;28;1602;-77
2022/11/03 05:08:40;;;;;;;;;;;;;;;8.36;81.35;99748.53;5015219;28;1861;-77
2022/11/03 05:11:07;;;;;;;;;;;;;;;8.39;81.39;99748.13;5016522;28;1979;-77
2022/11/03 05:13:33;;;;;;;;;;;;;;;8.42;81.37;99749.53;5020209;28;2036;-78
2022/11/03 05:15:59;;;;;;;;;;;;;;;8.40;81.46;99747.06;5018268;28;1734;-77
2022/11/03 05:18:25;;;;;;;;;;;;;;;8.38;81.48;99753.66;5013913;28;2005;-77
2022/11/03 05:20:52;;;;;;;;;;;;;;;8.36;81.43;99745.03;5016844;28;1881;-77
2022/11/03 05:23:18;;;;;;;;;;;;;;;8.48;81.28;99743.25;5017249;28;1836;-77
2022/11/03 05:25:44;;;;;;;;;;;;;;;8.46;81.13;99749.91;5014469;28;1920;-77
2022/11/03 05:28:11;;;;;;;;;;;;;;;8.36;81.42;99745.84;5018688;28;1860;-77
2022/11/03 05:30:37;;;;;;;;;;;;;;;8.42;81.16;99741.47;5014538;28;1916;-77
2022/11/03 05:33:03;;;;;;;;;;;;;;;8.44;81.03;99736.69;5018790;28;1892;-77
2022/11/03 05:35:29;;;;;;;;;;;;;;;8.39;81.48;99742.75;5018062;28;1729;-77
2022/11/03 05:37:56;;;;;;;;;;;;;;;8.44;81.39;99735.88;5016589;28;1852;-77
2022/11/03 05:40:22;;;;;;;;;;;;;;;8.41;81.22;99737.13;5017461;28;1946;-77
2022/11/03 05:42:48;;;;;;;;;;;;;;;8.41;81.21;99721.03;5013193;28;1556;-77
2022/11/03 05:45:15;;;;;;;;;;;;;;;8.47;80.94;99727.38;5015715;28;1900;-77
2022/11/03 05:47:41;;;;;;;;;;;;;;;8.39;81.34;99723.97;5019705;28;1894;-77
2022/11/03 05:50:07;;;;;;;;;;;;;;;8.47;81.04;99722.00;5015078;28;1679;-77
2022/11/03 05:52:34;;;;;;;;;;;;;;;8.44;81.14;99720.59;5017372;28;1686;-77
2022/11/03 05:55:00;;;;;;;;;;;;;;;8.43;81.04;99710.09;5017079;28;1893;-77
2022/11/03 05:57:26;;;;;;;;;;;;;;;8.41;81.05;99715.69;5017450;28;2004;-77
2022/11/03 05:59:52;;;;;;;;;;;;;;;8.41;81.37;99704.94;5014772;28;1977;-77
2022/11/03 06:02:19;;;;;;;;;;;;;;;7.86;81.41;99613.81;5017351;28;1656;-77
2022/11/03 06:04:45;;;;;;;;;;;;;;;8.44;80.93;99691.06;5016786;28;2209;-77
2022/11/03 06:07:13;;;;;;;;;;;;;;;8.49;81.38;99695.78;5008343;28;2687;-77
2022/11/03 06:09:39;;;;;;;;;;;;;;;8.45;81.19;99689.22;5022692;28;2204;-77
2022/11/03 06:12:05;;;;;;;;;;;;;;;8.45;81.20;99695.41;5022673;28;1824;-77
2022/11/03 06:14:32;;;;;;;;;;;;;;;8.46;81.15;99710.47;5024837;28;1535;-77
2022/11/03 06:16:58;;;;;;;;;;;;;;;8.41;81.19;99687.00;5024557;28;1893;-77
2022/11/03 06:19:25;;;;;;;;;;;;;;;8.43;81.15;99689.44;5021436;28;1919;-77
2022/11/03 06:21:51;;;;;;;;;;;;;;;8.41;81.49;99691.53;5023778;28;1598;-77
2022/11/03 06:24:18;;;;;;;;;;;;;;;8.38;81.44;99692.81;5040655;28;1990;-77
2022/11/03 06:26:44;;;;;;;;;;;;;;;8.44;80.99;99680.34;5043708;28;2108;-77
2022/11/03 06:29:10;;;;;;;;;;;;;;;8.38;81.76;99706.25;5034961;28;1862;-77
2022/11/03 06:31:36;;;;;;;;;;;;;;;8.39;81.45;99699.00;5024703;28;1551;-77
2022/11/03 06:34:03;;;;;;;;;;;;;;;8.42;81.22;99698.56;5025286;28;2017;-77
2022/11/03 06:36:29;;;;;;;;;;;;;;;8.40;81.67;99703.31;5032587;28;2048;-78
2022/11/03 06:38:55;;;;;;;;;;;;;;;8.47;81.18;99693.34;5023633;28;1918;-78
2022/11/03 06:41:21;;;;;;;;;;;;;;;8.44;81.40;99701.81;5028522;28;1801;-78
2022/11/03 06:43:48;;;;;;;;;;;;;;;8.41;81.21;99699.56;5037565;28;1988;-78
2022/11/03 06:46:14;;;;;;;;;;;;;;;8.46;80.89;99680.13;5041674;28;2505;-78
2022/11/03 06:48:40;;;;;;;;;;;;;;;8.45;81.15;99690.03;5036451;28;1317;-78
2022/11/03 06:51:07;;;;;;;;;;;;;;;8.40;81.53;99679.97;5033168;28;1545;-78
2022/11/03 06:53:33;;;;;;;;;;;;;;;8.41;81.17;99675.44;5029113;28;1976;-78
2022/11/03 06:55:59;;;;;;;;;;;;;;;8.46;81.35;99683.63;5024005;28;5280;-78
2022/11/03 06:58:26;;;;;;;;;;;;;;;8.45;81.13;99676.63;5021471;28;4391;-77
2022/11/03 07:00:52;;;;;;;;;;;;;;;8.46;81.22;99672.88;5022729;28;3468;-77
2022/11/03 07:03:19;;;;;;;;;;;;;;;8.47;81.19;99662.97;5013317;28;1784;-77
2022/11/03 07:05:45;;;;;;;;;;;;;;;8.51;80.65;99672.22;5011809;28;1691;-77
2022/11/03 07:08:11;;;;;;;;;;;;;;;8.53;80.76;99673.63;5013869;28;2391;-77
2022/11/03 07:10:38;;;;;;;;;;;;;;;8.45;81.19;99663.22;5024472;28;1892;-77
2022/11/03 07:13:04;;;;;;;;;;;;;;;8.48;81.08;99662.75;5021604;28;4712;-77
2022/11/03 07:15:31;;;;;;;;;;;;;;;8.44;81.45;99658.88;5025858;28;2016;-78
2022/11/03 07:17:57;;;;;;;;;;;;;;;8.47;80.95;99662.97;5024121;28;1068;-78
2022/11/03 07:20:23;;;;;;;;;;;;;;;8.50;80.90;99660.66;5022635;28;1966;-78
2022/11/03 07:22:49;;;;;;;;;;;;;;;8.47;81.36;99674.53;5022919;28;1267;-78
2022/11/03 07:25:16;;;;;;;;;;;;;;;8.48;81.29;99670.00;5031397;28;3039;-78
2022/11/03 07:27:42;;;;;;;;;;;;;;;8.47;80.86;99646.88;5029400;28;2107;-78
2022/11/03 07:30:08;;;;;;;;;;;;;;;8.67;80.30;99655.47;5031653;28;1125;-78
2022/11/03 07:32:35;;;;;;;;;;;;;;;8.46;81.18;99638.00;5050329;28;1981;-78
2022/11/03 07:35:01;;;;;;;;;;;;;;;8.44;81.45;99641.97;5030798;28;1935;-78
2022/11/03 07:37:27;;;;;;;;;;;;;;;8.47;81.30;99638.81;5035665;28;1253;-77
2022/11/03 07:39:53;;;;;;;;;;;;;;;8.44;81.12;99632.03;5028869;28;1906;-77
2022/11/03 07:42:20;;;;;;;;;;;;;;;8.46;81.18;99631.81;5035216;28;1941;-77
2022/11/03 07:44:46;;;;;;;;;;;;;;;8.52;80.96;99637.09;5039687;28;3463;-77
2022/11/03 07:47:13;;;;;;;;;;;;;;;8.47;81.08;99628.09;5023987;28;1877;-77
2022/11/03 07:49:39;;;;;;;;;;;;;;;8.51;81.05;99629.28;5021359;28;1554;-77
2022/11/03 07:52:05;;;;;;;;;;;;;;;8.49;81.31;99624.13;5035065;28;1531;-78
2022/11/03 07:54:32;;;;;;;;;;;;;;;8.49;81.28;99629.50;5034374;28;1831;-77
2022/11/03 07:56:58;;;;;;;;;;;;;;;8.50;81.33;99619.56;5039383;28;1232;-77
2022/11/03 07:59:24;;;;;;;;;;;;;;;8.66;80.49;99628.84;5034546;28;1973;-78
2022/11/03 08:01:50;;;;;;;;;;;;;;;8.69;80.49;99629.22;5050466;28;1935;-78
2022/11/03 08:04:17;;;;;;;;;;;;;;;8.60;80.78;99633.28;5033511;28;1783;-78
2022/11/03 08:06:43;;;;;;;;;;;;;;;8.51;81.25;99634.66;5029537;28;1874;-77
2022/11/03 08:09:12;;;;;;;;;;;;;;;8.49;81.08;99639.41;5025223;28;1175;-77
2022/11/03 08:11:38;;;;;;;;;;;;;;;8.41;81.34;99640.53;5024871;28;1892;-77
2022/11/03 08:14:05;;;;;;;;;;;;;;;8.61;80.93;99648.31;5020465;28;1662;-77
2022/11/03 08:16:31;;;;;;;;;;;;;;;8.58;80.74;99638.84;5020739;28;1964;-77
2022/11/03 08:18:57;;;;;;;;;;;;;;;8.45;81.36;99648.97;5018410;28;1918;-77
2022/11/03 08:21:24;;;;;;;;;;;;;;;8.47;81.34;99642.34;5020270;28;1924;-77
2022/11/03 08:23:50;;;;;;;;;;;;;;;8.57;81.32;99636.41;5023956;28;1977;-77
2022/11/03 08:26:16;;;;;;;;;;;;;;;8.48;81.51;99640.47;5023035;28;1542;-78
2022/11/03 08:28:43;;;;;;;;;;;;;;;8.43;81.82;99648.38;5027238;28;1120;-78
2022/11/03 08:31:09;;;;;;;;;;;;;;;8.64;80.81;99647.88;5030109;28;2008;-78
2022/11/03 08:33:35;;;;;;;;;;;;;;;8.71;80.48;99639.72;5031616;28;1068;-77
2022/11/03 08:36:01;;;;;;;;;;;;;;;8.84;80.27;99640.31;5024273;28;1705;-78
2022/11/03 08:38:28;;;;;;;;;;;;;;;8.67;80.77;99644.72;5016541;28;1171;-78
2022/11/03 08:40:54;;;;;;;;;;;;;;;8.57;80.98;99647.16;5027673;28;5090;-78
2022/11/03 08:43:20;;;;;;;;;;;;;;;8.66;81.00;99631.53;5038036;28;2271;-78
2022/11/03 08:45:52;;;;;;;;;;;;;;;8.77;80.14;99649.56;5027754;28;1542;-78
2022/11/03 08:48:18;;;;;;;;;;;;;;;8.55;81.26;99642.00;5028490;28;1921;-78
2022/11/03 08:50:44;;;;;;;;;;;;;;;8.67;80.58;99633.97;5035068;28;1994;-78
2022/11/03 08:53:11;;;;;;;;;;;;;;;8.60;81.42;99633.28;5027189;28;1511;-77
2022/11/03 08:55:37;;;;;;;;;;;;;;;8.71;80.84;99629.81;5042232;28;1456;-77
2022/11/03 08:58:03;;;;;;;;;;;;;;;8.76;80.53;99631.78;5043339;28;1408;-77
2022/11/03 09:00:29;;;;;;;;;;;;;;;8.64;80.89;99627.19;5031041;28;2024;-77
2022/11/03 09:02:56;;;;;;;;;;;;;;;8.75;80.47;99614.88;5034906;28;1904;-77
2022/11/03 09:05:22;;;;;;;;;;;;;;;8.81;80.17;99605.88;5028103;28;1452;-77
2022/11/03 09:07:48;;;;;;;;;;;;;;;8.98;79.67;99610.59;5029797;28;1869;-77
2022/11/03 09:10:15;;;;;;;;;;;;;;;8.85;79.86;99601.72;5030311;28;1756;-77
2022/11/03 09:12:42;;;;;;;;;;;;;;;8.86;80.13;99611.38;5033378;28;2012;-76
2022/11/03 09:15:08;;;;;;;;;;;;;;;8.84;79.93;99600.06;5026936;28;1786;-77
2022/11/03 09:17:34;;;;;;;;;;;;;;;8.70;80.57;99598.63;5032035;28;1739;-77
2022/11/03 09:20:01;;;;;;;;;;;;;;;8.71;80.75;99602.16;5030141;28;1910;-77
2022/11/03 09:22:27;;;;;;;;;;;;;;;8.75;80.75;99603.31;5023960;28;1859;-77
2022/11/03 09:24:53;;;;;;;;;;;;;;;8.75;80.31;99616.75;5045729;28;1756;-77
2022/11/03 09:27:19;;;;;;;;;;;;;;;8.85;80.32;99609.75;5022961;28;5413;-77
2022/11/03 09:29:46;;;;;;;;;;;;;;;8.84;80.33;99607.28;5032215;28;4814;-77
2022/11/03 09:32:12;;;;;;;;;;;;;;;8.76;80.42;99605.75;5037490;28;5044;-77
2022/11/03 09:34:38;;;;;;;;;;;;;;;8.73;80.75;99603.53;5034531;28;1689;-77
2022/11/03 09:37:04;;;;;;;;;;;;;;;8.84;80.52;99610.78;5041539;28;1838;-77
2022/11/03 09:39:31;;;;;;;;;;;;;;;8.91;80.09;99613.38;5027688;28;1973;-77
2022/11/03 09:41:57;;;;;;;;;;;;;;;8.91;80.40;99615.22;5042537;28;1995;-77
2022/11/03 09:44:24;;;;;;;;;;;;;;;8.95;80.09;99621.81;5031594;28;4972;-77
2022/11/03 09:46:50;;;;;;;;;;;;;;;8.91;80.19;99610.69;5025731;28;2075;-78
2022/11/03 09:49:16;;;;;;;;;;;;;;;9.14;79.08;99620.63;5029448;28;1803;-77
2022/11/03 09:51:43;;;;;;;;;;;;;;;9.12;79.58;99622.75;5036320;28;1496;-77
2022/11/03 09:54:09;;;;;;;;;;;;;;;8.97;80.00;99617.00;5036445;28;1876;-77
2022/11/03 09:56:35;;;;;;;;;;;;;;;8.93;80.10;99629.25;5027607;28;2962;-77
2022/11/03 09:59:02;;;;;;;;;;;;;;;8.97;79.82;99623.22;5030042;28;2254;-77
2022/11/03 10:01:28;;;;;;;;;;;;;;;9.02;79.60;99620.63;5034358;28;1906;-78
2022/11/03 10:03:54;;;;;;;;;;;;;;;9.07;79.52;99636.06;5023566;28;2269;-77
2022/11/03 10:06:20;;;;;;;;;;;;;;;8.88;80.37;99619.19;5025894;28;1718;-77
2022/11/03 10:08:47;;;;;;;;;;;;;;;8.92;80.00;99631.13;5033477;28;1820;-77
2022/11/03 10:11:13;;;;;;;;;;;;;;;9.10;79.30;99625.66;5034553;28;1199;-77
2022/11/03 10:13:40;;;;;;;;;;;;;;;9.08;79.54;99643.88;5031381;28;1873;-77
2022/11/03 10:16:06;;;;;;;;;;;;;;;8.79;80.81;99650.94;5031926;28;1621;-77
2022/11/03 10:18:32;;;;;;;;;;;;;;;8.96;79.95;99642.22;5029867;28;1849;-77
2022/11/03 10:20:59;;;;;;;;;;;;;;;9.01;79.86;99640.47;5020693;28;1918;-77
2022/11/03 10:23:25;;;;;;;;;;;;;;;9.09;79.76;99636.66;5025541;28;1919;-77
2022/11/03 10:25:51;;;;;;;;;;;;;;;9.03;79.81;99635.72;5020762;28;2277;-77
2022/11/03 10:28:17;;;;;;;;;;;;;;;9.34;78.45;99631.03;5014677;28;1159;-77
2022/11/03 10:30:44;;;;;;;;;;;;;;;9.21;78.95;99631.28;5046012;28;1541;-77
2022/11/03 10:33:10;;;;;;;;;;;;;;;9.18;79.10;99634.44;5034078;28;1959;-77
2022/11/03 10:35:36;;;;;;;;;;;;;;;9.29;78.77;99647.03;5033091;28;1740;-77
2022/11/03 10:38:03;;;;;;;;;;;;;;;9.28;78.72;99648.09;5021965;28;1123;-77
2022/11/03 10:40:29;;;;;;;;;;;;;;;8.93;80.02;99646.19;5013225;28;1914;-77
2022/11/03 10:42:55;;;;;;;;;;;;;;;8.94;80.51;99647.84;5027874;28;1954;-77
2022/11/03 10:45:22;;;;;;;;;;;;;;;9.24;79.26;99652.31;5025295;28;1101;-77
2022/11/03 10:47:48;;;;;;;;;;;;;;;9.26;79.09;99652.88;5041419;28;1141;-77
2022/11/03 10:50:14;;;;;;;;;;;;;;;9.08;79.70;99651.13;5034803;28;1660;-77
2022/11/03 10:52:41;;;;;;;;;;;;;;;9.12;79.47;99651.47;5035727;28;1854;-77
2022/11/03 10:55:07;;;;;;;;;;;;;;;8.78;80.88;99651.19;5049272;28;1073;-77
2022/11/03 10:57:33;;;;;;;;;;;;;;;8.81;80.69;99651.53;5025296;28;1224;-77
2022/11/03 11:00:00;;;;;;;;;;;;;;;8.83;80.54;99657.50;5025463;28;1902;-77
2022/11/03 11:02:30;;;;;;;;;;;;;;;8.81;81.00;99658.78;5050364;28;1924;-77
2022/11/03 11:04:57;;;;;;;;;;;;;;;8.67;81.25;99663.50;5053144;28;1460;-77
2022/11/03 11:07:25;;;;;;;;;;;;;;;8.70;81.38;99676.47;5037352;28;1157;-77
2022/11/03 11:09:54;;;;;;;;;;;;;;;8.76;81.25;99677.44;5049101;28;1171;-77
2022/11/03 11:12:20;;;;;;;;;;;;;;;8.70;81.41;99679.16;5035626;28;1811;-77
2022/11/03 11:14:47;;;;;;;;;;;;;;;8.66;81.54;99680.66;5044030;28;1132;-77
2022/11/03 11:17:13;;;;;;;;;;;;;;;8.67;81.37;99678.81;5050329;28;1175;-77
2022/11/03 11:19:39;;;;;;;;;;;;;;;8.62;81.84;99679.50;5057399;28;1914;-77
2022/11/03 11:22:05;;;;;;;;;;;;;;;8.65;81.51;99676.38;5052277;28;1984;-77
2022/11/03 11:24:32;;;;;;;;;;;;;;;8.77;81.45;99671.84;5039922;28;1144;-77
2022/11/03 11:26:58;;;;;;;;;;;;;;;8.73;81.35;99673.34;5027732;28;1812;-77
2022/11/03 11:29:24;;;;;;;;;;;;;;;8.81;81.17;99673.00;5035051;28;1472;-77
2022/11/03 11:31:50;;;;;;;;;;;;;;;8.79;81.13;99672.41;5058653;28;1877;-77
2022/11/03 11:34:17;;;;;;;;;;;;;;;8.68;81.64;99665.16;5044825;28;1834;-77
2022/11/03 11:36:43;;;;;;;;;;;;;;;8.71;81.51;99674.63;5050009;28;1777;-77
2022/11/03 11:39:09;;;;;;;;;;;;;;;8.66;81.78;99678.00;5056333;28;1869;-77
2022/11/03 11:41:36;;;;;;;;;;;;;;;8.84;81.13;99677.91;5038154;28;1966;-77
2022/11/03 11:44:02;;;;;;;;;;;;;;;8.70;81.34;99679.16;5044999;28;1168;-77
2022/11/03 11:46:28;;;;;;;;;;;;;;;8.84;80.80;99672.56;5049113;28;1156;-77
2022/11/03 11:48:54;;;;;;;;;;;;;;;8.73;81.39;99681.38;5037625;28;1942;-77
2022/11/03 11:51:21;;;;;;;;;;;;;;;8.68;81.56;99673.22;5038288;28;1532;-77
2022/11/03 11:53:48;;;;;;;;;;;;;;;8.67;81.97;99676.13;5047241;28;1140;-77
2022/11/03 11:56:15;;;;;;;;;;;;;;;8.63;81.61;99681.13;5039328;28;5642;-77
2022/11/03 11:58:41;;;;;;;;;;;;;;;8.61;81.99;99675.97;5036282;28;5605;-77
2022/11/03 12:01:08;;;;;;;;;;;;;;;8.68;81.73;99675.91;5057362;28;1967;-77
2022/11/03 12:03:37;;;;;;;;;;;;;;;8.75;81.50;99675.81;5031723;28;5090;-78
2022/11/03 12:06:03;;;;;;;;;;;;;;;8.70;81.64;99673.78;5032132;28;1798;-77
2022/11/03 12:08:30;;;;;;;;;;;;;;;8.64;81.63;99680.88;5049001;28;1175;-77
2022/11/03 12:10:56;;;;;;;;;;;;;;;8.66;81.95;99680.66;5055004;28;1822;-78
2022/11/03 12:13:23;;;;;;;;;;;;;;;8.66;81.68;99677.19;5056123;28;1023;-77
2022/11/03 12:15:50;;;;;;;;;;;;;;;8.68;82.09;99683.13;5059025;28;5531;-77
2022/11/03 12:18:16;;;;;;;;;;;;;;;8.71;81.67;99674.63;5053846;28;1492;-77
2022/11/03 12:20:43;;;;;;;;;;;;;;;8.68;81.88;99675.06;5044281;28;1914;-77
2022/11/03 12:23:09;;;;;;;;;;;;;;;8.86;80.96;99688.44;5042611;28;1864;-77
2022/11/03 12:25:36;;;;;;;;;;;;;;;8.75;81.72;99679.31;5047678;28;1939;-77
2022/11/03 12:28:02;;;;;;;;;;;;;;;8.70;81.82;99684.53;5052713;28;3260;-77
2022/11/03 12:30:28;;;;;;;;;;;;;;;8.85;81.39;99673.38;5037078;28;2206;-77
2022/11/03 12:32:56;;;;;;;;;;;;;;;8.89;80.90;99684.50;5032598;28;1987;-77
2022/11/03 12:35:24;;;;;;;;;;;;;;;8.80;81.44;99682.13;5037908;28;1909;-77
2022/11/03 12:37:51;;;;;;;;;;;;;;;8.87;81.38;99685.53;5032416;28;1843;-77
2022/11/03 12:40:17;;;;;;;;;;;;;;;8.82;81.29;99687.25;5055958;28;1934;-77
2022/11/03 12:42:43;;;;;;;;;;;;;;;8.90;81.43;99684.25;5027114;28;1298;-77
2022/11/03 12:45:10;;;;;;;;;;;;;;;8.90;81.17;99681.56;5038447;28;1909;-77
2022/11/03 12:47:37;;;;;;;;;;;;;;;8.89;80.95;99689.84;5056238;28;1875;-77
2022/11/03 12:50:06;;;;;;;;;;;;;;;8.87;81.29;99688.19;5044678;28;1179;-77
2022/11/03 12:52:32;;;;;;;;;;;;;;;8.82;81.56;99681.88;5049808;28;1634;-77
2022/11/03 12:54:59;;;;;;;;;;;;;;;8.95;80.64;99680.88;5044460;28;1196;-77
2022/11/03 12:57:25;;;;;;;;;;;;;;;8.89;81.25;99679.13;5037715;28;1771;-77
2022/11/03 12:59:51;;;;;;;;;;;;;;;9.00;81.00;99683.66;5028929;28;1742;-77
2022/11/03 13:02:18;;;;;;;;;;;;;;;8.87;81.35;99690.88;5055862;28;1969;-77
2022/11/03 13:04:44;;;;;;;;;;;;;;;9.01;81.01;99701.44;5036948;28;1916;-77
2022/11/03 13:07:10;;;;;;;;;;;;;;;8.90;81.03;99689.63;5053389;28;1540;-77
2022/11/03 13:09:36;;;;;;;;;;;;;;;8.85;81.50;99697.53;5046863;28;1121;-77
2022/11/03 13:14:47;;;;;;;;;;;;;;;8.82;81.41;99688.09;5055058;28;1861;-77
2022/11/03 13:17:13;;;;;;;;;;;;;;;8.79;81.58;99690.38;5036560;28;1523;-76
2022/11/03 13:19:40;;;;;;;;;;;;;;;8.89;81.44;99684.50;5045024;28;1080;-77
2022/11/03 13:22:06;;;;;;;;;;;;;;;8.78;81.49;99683.41;5053875;28;1922;-77
2022/11/03 13:24:32;;;;;;;;;;;;;;;8.74;82.09;99688.41;5024238;28;1339;-77